createdAt,value
2019-04-30T00:01:42.287Z,9.93
2019-04-30T00:04:15.756Z,8.33
2019-04-30T00:06:45.400Z,9.40
2019-04-30T00:09:19.038Z,12.23
2019-04-30T00:11:50.779Z,9.23
2019-04-30T00:14:18.654Z,6.03
2019-04-30T00:16:47.903Z,6.87
2019-04-30T00:19:19.693Z,8.50
2019-04-30T00:21:54.542Z,6.40
2019-04-30T00:24:19.204Z,7.10
2019-04-30T00:26:52.266Z,6.70
2019-04-30T00:29:26.788Z,6.50
2019-04-30T00:31:50.530Z,6.20
2019-04-30T00:34:19.814Z,11.20
2019-04-30T00:36:49.295Z,6.20
2019-04-30T00:39:18.546Z,9.57
2019-04-30T00:41:47.808Z,7.87
2019-04-30T00:44:19.871Z,9.07
2019-04-30T00:46:48.140Z,7.00
2019-04-30T00:49:22.947Z,10.70
2019-04-30T00:51:49.759Z,5.53
2019-04-30T00:54:22.488Z,7.00
2019-04-30T00:56:50.497Z,7.10
2019-04-30T00:59:19.886Z,8.20
2019-04-30T01:02:08.126Z,8.60
2019-04-30T01:04:42.662Z,6.10
2019-04-30T01:07:15.428Z,5.47
2019-04-30T01:09:49.747Z,5.30
2019-04-30T01:12:27.671Z,8.43
2019-04-30T01:14:49.851Z,5.63
2019-04-30T01:17:19.226Z,8.70
2019-04-30T01:19:51.168Z,6.13
2019-04-30T01:22:27.721Z,8.50
2019-04-30T01:24:50.541Z,12.10
2019-04-30T01:27:20.613Z,5.80
2019-04-30T01:29:49.915Z,5.50
2019-04-30T01:32:20.995Z,7.13
2019-04-30T01:34:53.875Z,6.23
2019-04-30T01:37:28.352Z,12.93
2019-04-30T01:39:52.253Z,5.97
2019-04-30T01:42:23.859Z,7.40
2019-04-30T01:44:53.986Z,5.63
2019-04-30T01:47:27.698Z,8.20
2019-04-30T01:49:56.020Z,6.03
2019-04-30T01:52:35.166Z,6.53
2019-04-30T01:55:00.570Z,6.80
2019-04-30T01:57:39.151Z,6.10
2019-04-30T02:00:33.853Z,6.53
2019-04-30T02:03:03.269Z,9.47
2019-04-30T02:05:32.763Z,5.80
2019-04-30T02:08:03.178Z,7.20
2019-04-30T02:10:32.629Z,5.67
2019-04-30T02:13:02.091Z,5.20
2019-04-30T02:15:31.456Z,7.47
2019-04-30T02:18:00.868Z,5.20
2019-04-30T02:20:30.248Z,8.07
2019-04-30T02:22:59.745Z,7.57
2019-04-30T02:25:31.276Z,7.10
2019-04-30T02:28:00.848Z,7.37
2019-04-30T02:30:30.756Z,7.13
2019-04-30T02:33:03.224Z,10.10
2019-04-30T02:35:54.719Z,9.30
2019-04-30T02:38:30.098Z,5.50
2019-04-30T02:41:02.023Z,7.07
2019-04-30T02:43:33.754Z,8.50
2019-04-30T02:46:05.049Z,7.97
2019-04-30T02:48:39.314Z,5.83
2019-04-30T02:51:10.308Z,6.43
2019-04-30T02:54:24.074Z,6.90
2019-04-30T02:57:13.403Z,6.00
2019-04-30T03:00:01.212Z,10.23
2019-04-30T03:02:31.642Z,7.47
2019-04-30T03:05:01.086Z,12.83
2019-04-30T03:07:30.894Z,5.30
2019-04-30T03:10:01.210Z,5.40
2019-04-30T03:12:33.619Z,7.20
2019-04-30T03:15:01.814Z,11.10
2019-04-30T03:17:50.775Z,5.07
2019-04-30T03:20:40.057Z,5.57
2019-04-30T03:23:09.795Z,11.67
2019-04-30T03:25:40.519Z,8.13
2019-04-30T03:28:10.092Z,5.80
2019-04-30T03:30:41.870Z,7.47
2019-04-30T03:33:12.699Z,6.77
2019-04-30T03:35:47.440Z,7.43
2019-04-30T03:38:12.448Z,11.37
2019-04-30T03:40:42.047Z,10.47
2019-04-30T03:43:11.348Z,5.47
2019-04-30T03:45:40.643Z,7.90
2019-04-30T03:48:10.395Z,5.83
2019-04-30T03:50:52.485Z,7.90
2019-04-30T03:53:10.931Z,8.30
2019-04-30T03:55:40.394Z,6.57
2019-04-30T03:58:12.446Z,4.87
2019-04-30T04:01:03.687Z,6.70
2019-04-30T04:03:35.632Z,6.40
2019-04-30T04:06:21.656Z,15.23
2019-04-30T04:09:00.240Z,7.13
2019-04-30T04:11:33.891Z,6.23
2019-04-30T04:14:22.669Z,4.63
2019-04-30T04:16:52.361Z,5.90
2019-04-30T04:19:21.739Z,8.37
2019-04-30T04:21:51.188Z,6.13
2019-04-30T04:24:20.697Z,4.57
2019-04-30T04:26:50.453Z,5.20
2019-04-30T04:29:19.958Z,5.23
2019-04-30T04:31:50.235Z,4.87
2019-04-30T04:34:19.996Z,12.67
2019-04-30T04:37:00.658Z,4.93
2019-04-30T04:39:29.979Z,8.47
2019-04-30T04:42:00.054Z,10.13
2019-04-30T04:44:29.575Z,10.23
2019-04-30T04:47:00.122Z,4.27
2019-04-30T04:49:30.565Z,6.50
2019-04-30T04:52:00.095Z,5.07
2019-04-30T04:54:30.005Z,6.17
2019-04-30T04:57:14.048Z,6.73
2019-04-30T04:59:30.452Z,5.17
2019-04-30T05:02:02.970Z,8.27
2019-04-30T05:04:32.453Z,5.20
2019-04-30T05:07:01.715Z,9.90
2019-04-30T05:09:31.040Z,5.40
2019-04-30T05:12:00.325Z,6.60
2019-04-30T05:14:29.626Z,6.90
2019-04-30T05:16:58.918Z,6.80
2019-04-30T05:19:28.650Z,7.73
2019-04-30T05:22:04.443Z,7.70
2019-04-30T05:24:41.823Z,7.60
2019-04-30T05:27:11.110Z,5.23
2019-04-30T05:29:40.319Z,8.43
2019-04-30T05:32:09.543Z,4.90
2019-04-30T05:34:38.953Z,4.73
2019-04-30T05:37:09.086Z,11.63
2019-04-30T05:39:39.044Z,14.73
2019-04-30T05:42:08.843Z,8.33
2019-04-30T05:44:39.565Z,7.10
2019-04-30T05:47:09.390Z,2.07
2019-04-30T05:49:39.037Z,4.60
2019-04-30T05:52:11.596Z,9.70
2019-04-30T05:54:41.567Z,6.50
2019-04-30T05:57:10.762Z,8.40
2019-04-30T05:59:39.924Z,6.93
2019-04-30T06:02:11.453Z,3.83
2019-04-30T06:04:42.224Z,6.47
2019-04-30T06:07:12.638Z,5.53
2019-04-30T06:09:56.799Z,7.47
2019-04-30T06:12:36.015Z,8.97
2019-04-30T06:15:20.166Z,4.60
2019-04-30T06:18:00.046Z,12.53
2019-04-30T06:20:22.571Z,7.40
2019-04-30T06:22:53.222Z,6.33
2019-04-30T06:25:31.168Z,7.40
2019-04-30T06:27:59.945Z,8.67
2019-04-30T06:30:40.184Z,5.77
2019-04-30T06:33:19.268Z,6.40
2019-04-30T06:35:50.218Z,6.10
2019-04-30T06:38:29.155Z,9.80
2019-04-30T06:40:58.966Z,5.73
2019-04-30T06:43:28.720Z,6.67
2019-04-30T06:45:59.008Z,6.97
2019-04-30T06:48:32.428Z,4.50
2019-04-30T06:51:02.197Z,11.90
2019-04-30T06:53:31.930Z,8.73
2019-04-30T06:56:01.146Z,6.17
2019-04-30T06:58:33.618Z,7.33
2019-04-30T07:01:03.118Z,5.00
2019-04-30T07:03:32.569Z,6.57
2019-04-30T07:06:01.879Z,5.90
2019-04-30T07:08:55.678Z,6.47
2019-04-30T07:11:29.304Z,7.97
2019-04-30T07:13:59.990Z,6.83
2019-04-30T07:16:29.939Z,8.70
2019-04-30T07:18:59.310Z,8.13
2019-04-30T07:21:31.357Z,5.70
2019-04-30T07:24:01.831Z,7.80
2019-04-30T07:26:31.137Z,9.80
2019-04-30T07:29:02.572Z,6.77
2019-04-30T07:31:31.402Z,6.50
2019-04-30T07:34:00.695Z,9.23
2019-04-30T07:36:45.342Z,6.63
2019-04-30T07:39:01.078Z,8.23
2019-04-30T07:41:31.350Z,5.67
2019-04-30T07:44:00.677Z,6.03
2019-04-30T07:46:30.178Z,6.60
2019-04-30T07:49:01.057Z,6.10
2019-04-30T07:51:32.212Z,7.30
2019-04-30T07:54:01.516Z,6.20
2019-04-30T07:56:37.280Z,5.20
2019-04-30T07:59:02.834Z,7.97
2019-04-30T08:01:32.574Z,7.77
2019-04-30T08:04:23.809Z,5.03
2019-04-30T08:06:53.345Z,6.03
2019-04-30T08:09:22.643Z,7.30
2019-04-30T08:11:51.968Z,9.00
2019-04-30T08:14:22.155Z,6.13
2019-04-30T08:16:52.114Z,8.00
2019-04-30T08:19:21.330Z,6.50
2019-04-30T08:21:50.499Z,7.07
2019-04-30T08:24:21.881Z,7.33
2019-04-30T08:26:51.130Z,6.30
2019-04-30T08:29:20.320Z,7.33
2019-04-30T08:31:49.608Z,6.53
2019-04-30T08:34:20.163Z,9.20
2019-04-30T08:36:49.578Z,8.57
2019-04-30T08:39:19.744Z,6.73
2019-04-30T08:41:49.333Z,8.07
2019-04-30T08:44:21.231Z,6.23
2019-04-30T08:46:50.794Z,10.33
2019-04-30T08:49:20.527Z,7.70
2019-04-30T08:51:50.397Z,9.23
2019-04-30T08:54:20.386Z,9.03
2019-04-30T08:56:50.348Z,9.10
2019-04-30T08:59:19.782Z,9.50
2019-04-30T09:01:49.089Z,8.60
2019-04-30T09:04:28.952Z,6.63
2019-04-30T09:06:59.979Z,7.07
2019-04-30T09:09:29.640Z,8.10
2019-04-30T09:11:59.382Z,6.33
2019-04-30T09:14:29.802Z,6.60
2019-04-30T09:16:59.551Z,11.03
2019-04-30T09:19:29.990Z,8.17
2019-04-30T09:21:59.579Z,7.47
2019-04-30T09:24:30.957Z,9.83
2019-04-30T09:27:01.069Z,11.03
2019-04-30T09:29:30.333Z,9.47
2019-04-30T09:31:59.843Z,8.70
2019-04-30T09:34:29.323Z,7.60
2019-04-30T09:36:59.027Z,9.97
2019-04-30T09:39:29.601Z,8.40
2019-04-30T09:42:03.228Z,12.67
2019-04-30T09:44:32.481Z,7.23
2019-04-30T09:47:01.669Z,7.67
2019-04-30T09:49:35.918Z,7.00
2019-04-30T09:52:05.802Z,10.10
2019-04-30T09:54:35.015Z,8.50
2019-04-30T09:57:08.753Z,7.97
2019-04-30T09:59:38.851Z,6.97
2019-04-30T10:02:09.314Z,7.77
2019-04-30T10:04:39.785Z,12.50
2019-04-30T10:07:13.218Z,7.43
2019-04-30T10:09:42.464Z,8.57
2019-04-30T10:12:21.110Z,11.60
2019-04-30T10:14:50.666Z,11.03
2019-04-30T10:17:48.022Z,8.53
2019-04-30T10:20:18.860Z,7.40
2019-04-30T10:22:49.526Z,9.30
2019-04-30T10:25:20.857Z,14.40
2019-04-30T10:27:51.493Z,11.20
2019-04-30T10:30:23.874Z,8.20
2019-04-30T10:32:53.012Z,8.70
2019-04-30T10:35:22.377Z,8.93
2019-04-30T10:37:51.726Z,7.33
2019-04-30T10:40:21.024Z,6.63
2019-04-30T10:42:50.373Z,7.33
2019-04-30T10:45:26.137Z,7.03
2019-04-30T10:47:55.377Z,8.43
2019-04-30T10:50:25.864Z,11.70
2019-04-30T10:52:55.192Z,9.60
2019-04-30T10:55:24.457Z,7.03
2019-04-30T10:57:53.694Z,7.33
2019-04-30T11:00:38.940Z,9.00
2019-04-30T11:03:19.550Z,8.40
2019-04-30T11:05:41.356Z,7.63
2019-04-30T11:08:10.903Z,9.00
2019-04-30T11:10:40.249Z,7.40
2019-04-30T11:13:09.427Z,8.00
2019-04-30T11:15:39.443Z,7.40
2019-04-30T11:18:09.665Z,7.80
2019-04-30T11:20:39.840Z,8.57
2019-04-30T11:23:14.501Z,12.07
2019-04-30T11:25:41.526Z,9.80
2019-04-30T11:28:11.815Z,10.13
2019-04-30T11:30:42.016Z,8.17
2019-04-30T11:33:11.673Z,10.70
2019-04-30T11:35:41.302Z,9.50
2019-04-30T11:38:10.664Z,10.00
2019-04-30T11:40:40.192Z,10.30
2019-04-30T11:43:09.573Z,10.10
2019-04-30T11:46:08.625Z,10.33
2019-04-30T11:48:38.692Z,8.97
2019-04-30T11:51:09.453Z,10.47
2019-04-30T11:53:38.979Z,11.47
2019-04-30T11:56:09.743Z,12.03
2019-04-30T11:58:39.266Z,10.20
2019-04-30T12:01:12.041Z,14.10
2019-04-30T12:03:41.834Z,11.77
2019-04-30T12:06:11.350Z,17.00
2019-04-30T12:08:59.697Z,10.57
2019-04-30T12:11:34.108Z,10.07
2019-04-30T12:14:03.430Z,10.60
2019-04-30T12:16:33.735Z,9.63
2019-04-30T12:19:06.054Z,9.17
2019-04-30T12:21:35.300Z,9.83
2019-04-30T12:24:04.547Z,8.63
2019-04-30T12:26:33.743Z,8.37
2019-04-30T12:29:03.069Z,9.20
2019-04-30T12:31:32.398Z,8.70
2019-04-30T12:34:01.637Z,7.83
2019-04-30T12:36:30.830Z,8.53
2019-04-30T12:39:00.052Z,9.53
2019-04-30T12:41:29.222Z,8.37
2019-04-30T12:43:58.519Z,9.00
2019-04-30T12:46:28.917Z,8.60
2019-04-30T12:49:11.014Z,8.60
2019-04-30T12:52:19.534Z,9.60
2019-04-30T12:54:58.007Z,9.37
2019-04-30T12:57:58.726Z,8.60
2019-04-30T13:00:25.065Z,9.53
2019-04-30T13:02:54.271Z,9.80
2019-04-30T13:05:23.540Z,10.23
2019-04-30T13:07:53.210Z,8.47
2019-04-30T13:10:23.591Z,7.80
2019-04-30T13:12:53.902Z,8.27
2019-04-30T13:15:23.645Z,8.23
2019-04-30T13:17:52.831Z,8.67
2019-04-30T13:20:24.088Z,10.20
2019-04-30T13:22:53.207Z,9.73
2019-04-30T13:25:32.514Z,9.47
2019-04-30T13:27:56.309Z,9.60
2019-04-30T13:30:29.654Z,9.20
2019-04-30T13:33:20.315Z,8.80
2019-04-30T13:35:48.962Z,8.23
2019-04-30T13:38:29.500Z,9.17
2019-04-30T13:41:24.391Z,8.37
2019-04-30T13:44:02.315Z,8.83
2019-04-30T13:46:31.697Z,16.40
2019-04-30T13:49:03.199Z,9.20
2019-04-30T13:51:32.797Z,8.93
2019-04-30T13:54:03.241Z,7.90
2019-04-30T13:56:32.987Z,8.97
2019-04-30T13:59:02.421Z,8.17
2019-04-30T14:01:32.088Z,7.53
2019-04-30T14:04:13.936Z,8.53
2019-04-30T14:06:58.960Z,9.13
2019-04-30T14:09:31.817Z,9.63
2019-04-30T14:12:01.708Z,8.57
2019-04-30T14:14:40.222Z,8.70
2019-04-30T14:17:09.460Z,8.10
2019-04-30T14:19:38.732Z,8.40
2019-04-30T14:22:08.998Z,8.93
2019-04-30T14:24:38.390Z,8.60
2019-04-30T14:27:09.030Z,7.90
2019-04-30T14:29:39.585Z,9.50
2019-04-30T14:32:09.358Z,8.83
2019-04-30T14:34:39.657Z,8.27
2019-04-30T14:37:09.186Z,7.93
2019-04-30T14:39:38.864Z,8.23
2019-04-30T14:42:10.716Z,7.60
2019-04-30T14:44:40.372Z,8.13
2019-04-30T14:47:30.976Z,8.40
2019-04-30T14:50:11.790Z,8.03
2019-04-30T14:52:50.811Z,7.70
2019-04-30T14:55:29.483Z,8.27
2019-04-30T14:58:16.628Z,8.27
2019-04-30T15:00:59.772Z,8.10
2019-04-30T15:03:30.003Z,9.45
2019-04-30T15:05:59.581Z,7.47
2019-04-30T15:08:33.091Z,6.97
2019-04-30T15:11:02.331Z,8.10
2019-04-30T15:13:31.713Z,8.03
2019-04-30T15:16:00.945Z,8.67
2019-04-30T15:18:30.315Z,9.37
2019-04-30T15:20:59.605Z,8.60
2019-04-30T15:23:57.965Z,8.80
2019-04-30T15:26:22.923Z,8.27
2019-04-30T15:28:49.271Z,8.30
2019-04-30T15:31:18.952Z,6.57
2019-04-30T15:34:02.803Z,7.70
2019-04-30T15:36:29.334Z,7.13
2019-04-30T15:39:08.453Z,7.07
2019-04-30T15:41:37.737Z,7.43
2019-04-30T15:44:13.758Z,7.50
2019-04-30T15:46:43.043Z,7.20
2019-04-30T15:49:12.241Z,8.63
2019-04-30T15:51:41.724Z,8.17
2019-04-30T15:54:10.901Z,7.53
2019-04-30T15:56:42.343Z,8.77
2019-04-30T15:59:28.984Z,7.93
2019-04-30T16:02:04.914Z,7.97
2019-04-30T16:04:51.754Z,8.00
2019-04-30T16:07:21.040Z,7.83
2019-04-30T16:10:10.523Z,7.00
2019-04-30T16:12:53.030Z,6.70
2019-04-30T16:15:22.677Z,8.40
2019-04-30T16:17:53.678Z,6.90
2019-04-30T16:20:23.069Z,7.07
2019-04-30T16:22:56.640Z,7.50
2019-04-30T16:25:30.327Z,7.20
2019-04-30T16:27:59.746Z,7.83
2019-04-30T16:30:29.052Z,7.33
2019-04-30T16:32:59.623Z,8.13
2019-04-30T16:35:29.535Z,7.27
2019-04-30T16:37:59.370Z,7.10
2019-04-30T16:40:30.869Z,10.83
2019-04-30T16:43:00.189Z,8.47
2019-04-30T16:45:30.582Z,7.10
2019-04-30T16:48:01.240Z,7.33
2019-04-30T16:50:32.707Z,7.07
2019-04-30T16:53:02.036Z,7.80
2019-04-30T16:55:31.334Z,7.53
2019-04-30T16:58:00.771Z,7.27
2019-04-30T17:00:30.855Z,7.97
2019-04-30T17:03:05.360Z,7.50
2019-04-30T17:05:45.336Z,9.23
2019-04-30T17:08:32.593Z,7.57
2019-04-30T17:11:33.004Z,6.80
2019-04-30T17:14:05.270Z,7.70
2019-04-30T17:16:35.073Z,7.60
2019-04-30T17:19:04.809Z,7.33
2019-04-30T17:21:34.260Z,7.30
2019-04-30T17:24:03.648Z,9.67
2019-04-30T17:26:33.373Z,8.33
2019-04-30T17:29:02.737Z,8.67
2019-04-30T17:31:35.223Z,7.07
2019-04-30T17:34:05.142Z,7.80
2019-04-30T17:36:34.397Z,7.90
2019-04-30T17:39:23.072Z,8.53
2019-04-30T17:41:53.468Z,9.73
2019-04-30T17:44:24.328Z,9.67
2019-04-30T17:46:55.510Z,10.33
2019-04-30T17:49:32.770Z,10.73
2019-04-30T17:52:09.004Z,10.23
2019-04-30T17:54:39.481Z,12.50
2019-04-30T17:57:10.592Z,10.97
2019-04-30T17:59:39.791Z,10.83
2019-04-30T18:02:11.028Z,11.17
2019-04-30T18:04:40.573Z,9.90
2019-04-30T18:07:14.587Z,13.90
2019-04-30T18:09:44.876Z,10.13
2019-04-30T18:12:14.360Z,10.67
2019-04-30T18:14:55.266Z,12.23
2019-04-30T18:17:57.525Z,15.40
2019-04-30T18:20:49.128Z,15.03
2019-04-30T18:23:48.578Z,12.97
2019-04-30T18:26:18.522Z,13.60
2019-04-30T18:28:51.770Z,15.87
2019-04-30T18:31:21.501Z,17.63
2019-04-30T18:33:51.445Z,17.70
2019-04-30T18:36:20.898Z,19.07
2019-04-30T18:38:50.304Z,19.87
2019-04-30T18:41:19.642Z,20.87
2019-04-30T18:43:48.978Z,17.20
2019-04-30T18:46:19.165Z,16.67
2019-04-30T18:48:49.423Z,17.60
2019-04-30T18:51:33.660Z,15.40
2019-04-30T18:53:50.918Z,16.90
2019-04-30T18:56:20.295Z,17.03
2019-04-30T18:58:49.795Z,16.50
2019-04-30T19:01:19.204Z,16.67
2019-04-30T19:03:49.221Z,17.20
2019-04-30T19:06:26.055Z,16.93
2019-04-30T19:09:19.670Z,17.83
2019-04-30T19:11:59.491Z,18.67
2019-04-30T19:14:41.603Z,20.40
2019-04-30T19:17:44.935Z,18.13
2019-04-30T19:20:29.845Z,30.20
2019-04-30T19:22:59.198Z,20.83
2019-04-30T19:25:28.964Z,24.07
2019-04-30T19:28:09.585Z,21.77
2019-04-30T19:30:31.037Z,24.27
2019-04-30T19:33:00.345Z,29.63
2019-04-30T19:35:29.699Z,30.70
2019-04-30T19:37:59.293Z,30.20
2019-04-30T19:40:28.949Z,33.37
2019-04-30T19:42:58.225Z,36.63
2019-04-30T19:45:27.622Z,34.20
2019-04-30T19:47:58.619Z,35.03
2019-04-30T19:50:27.742Z,35.60
2019-04-30T19:52:58.620Z,35.57
2019-04-30T19:55:28.692Z,36.60
2019-04-30T19:57:59.903Z,34.97
2019-04-30T20:00:31.064Z,42.40
2019-04-30T20:03:00.500Z,35.57
2019-04-30T20:05:29.741Z,47.30
2019-04-30T20:07:59.240Z,42.53
2019-04-30T20:10:29.126Z,48.13
2019-04-30T20:12:58.979Z,43.83
2019-04-30T20:15:29.853Z,47.03
2019-04-30T20:18:01.011Z,49.40
2019-04-30T20:20:30.249Z,51.87
2019-04-30T20:22:59.746Z,57.13
2019-04-30T20:25:29.184Z,55.03
2019-04-30T20:27:58.551Z,54.13
2019-04-30T20:30:29.229Z,49.70
2019-04-30T20:32:59.405Z,51.00
2019-04-30T20:35:28.964Z,50.00
2019-04-30T20:38:26.604Z,46.00
2019-04-30T20:41:00.226Z,49.40
2019-04-30T20:43:28.569Z,49.47
2019-04-30T20:45:58.349Z,46.10
2019-04-30T20:48:35.911Z,60.23
2019-04-30T20:51:13.460Z,49.43
2019-04-30T20:53:49.183Z,47.33
2019-04-30T20:56:23.244Z,55.30
2019-04-30T20:58:58.610Z,52.00
2019-04-30T21:01:30.360Z,51.63
2019-04-30T21:04:00.874Z,46.40
2019-04-30T21:06:30.441Z,39.27
2019-04-30T21:08:59.906Z,40.03
2019-04-30T21:11:36.286Z,44.53
2019-04-30T21:14:06.598Z,38.70
2019-04-30T21:16:36.322Z,35.90
2019-04-30T21:19:06.004Z,37.23
2019-04-30T21:21:41.436Z,39.17
2019-04-30T21:24:10.929Z,44.17
2019-04-30T21:26:40.425Z,41.07
2019-04-30T21:29:13.298Z,48.90
2019-04-30T21:32:09.142Z,41.33
2019-04-30T21:34:49.331Z,40.30
2019-04-30T21:37:21.050Z,34.47
2019-04-30T21:39:56.295Z,24.33
2019-04-30T21:42:27.679Z,38.10
2019-04-30T21:45:03.272Z,37.17
2019-04-30T21:47:34.586Z,30.63
2019-04-30T21:50:05.375Z,29.33
2019-04-30T21:52:34.976Z,34.20
2019-04-30T21:55:13.276Z,29.97
2019-04-30T21:57:43.771Z,34.33
2019-04-30T22:00:21.177Z,32.27
2019-04-30T22:02:50.561Z,26.30
2019-04-30T22:05:20.027Z,29.90
2019-04-30T22:07:51.162Z,26.50
2019-04-30T22:10:20.615Z,28.17
2019-04-30T22:12:50.264Z,27.97
2019-04-30T22:15:19.865Z,31.53
2019-04-30T22:17:49.709Z,27.10
2019-04-30T22:20:19.187Z,29.77
2019-04-30T22:22:49.041Z,30.37
2019-04-30T22:25:19.395Z,37.50
2019-04-30T22:27:50.237Z,29.20
2019-04-30T22:30:19.881Z,26.47
2019-04-30T22:32:49.665Z,32.60
2019-04-30T22:35:36.865Z,33.80
2019-04-30T22:38:09.608Z,39.00
2019-04-30T22:40:39.411Z,38.97
2019-04-30T22:43:09.386Z,35.33
2019-04-30T22:45:47.049Z,41.37
2019-04-30T22:48:16.339Z,27.10
2019-04-30T22:50:52.008Z,32.63
2019-04-30T22:53:21.551Z,33.73
2019-04-30T22:55:50.852Z,30.33
2019-04-30T22:58:20.096Z,28.97
2019-04-30T23:00:50.920Z,23.10
2019-04-30T23:03:31.907Z,21.30
2019-04-30T23:06:01.281Z,23.73
2019-04-30T23:08:30.536Z,18.93
2019-04-30T23:10:59.808Z,21.40
2019-04-30T23:13:28.990Z,20.50
2019-04-30T23:15:58.278Z,20.70
2019-04-30T23:18:27.502Z,19.90
2019-04-30T23:20:56.752Z,16.63
2019-04-30T23:23:26.136Z,20.53
2019-04-30T23:25:55.367Z,17.70
2019-04-30T23:28:24.646Z,15.33
2019-04-30T23:30:54.122Z,20.93
2019-04-30T23:33:23.302Z,16.40
2019-04-30T23:35:52.570Z,17.17
2019-04-30T23:38:21.732Z,17.57
2019-04-30T23:40:52.047Z,17.40
2019-04-30T23:43:21.746Z,17.93
2019-04-30T23:45:51.016Z,23.17
2019-04-30T23:48:20.288Z,18.37
2019-04-30T23:50:49.449Z,18.80
2019-04-30T23:53:18.643Z,18.37
2019-04-30T23:55:47.888Z,18.20
2019-04-30T23:58:17.277Z,16.83
